Time;durP1;ratioP1;P1;durP2;ratioP2;P2;SDS_P1;SDS_P2;PMS_P1;PMS_P2;Temp;Humidity;BMP_temperature;BMP_pressure;BME280_temperature;BME280_humidity;BME280_pressure;Samples;Min_cycle;Max_cycle;Signal;HPM_P1;HPM_P2
2022/05/05 00:01:36;;;;;;;19.67;13.78;;;24.80;97.50;;;;;;1821086;77;21220;-79
2022/05/05 00:04:08;;;;;;;19.25;12.75;;;24.90;97.30;;;;;;1798839;77;21233;-78
2022/05/05 00:06:38;;;;;;;18.87;13.85;;;25.00;97.50;;;;;;1752330;78;21149;-78
2022/05/05 00:09:11;;;;;;;19.67;13.08;;;25.00;97.00;;;;;;1803870;77;21156;-78
2022/05/05 00:14:24;;;;;;;16.73;12.70;;;25.00;96.90;;;;;;1819859;77;21198;-77
2022/05/05 00:16:47;;;;;;;18.52;13.35;;;25.10;96.60;;;;;;1730073;80;21141;-78
2022/05/05 00:19:19;;;;;;;16.00;11.73;;;25.10;96.60;;;;;;1774082;80;21174;-78
2022/05/05 00:21:50;;;;;;;15.70;11.63;;;25.20;96.30;;;;;;1821407;77;21155;-77
2022/05/05 00:24:21;;;;;;;18.87;11.95;;;25.30;96.30;;;;;;1813968;77;21211;-78
2022/05/05 00:26:55;;;;;;;16.70;11.93;;;25.30;96.10;;;;;;1802607;77;21112;-79
2022/05/05 00:29:27;;;;;;;19.82;13.58;;;25.40;96.00;;;;;;1778572;78;21210;-78
2022/05/05 00:31:58;;;;;;;16.60;11.20;;;25.40;95.80;;;;;;1801163;77;21179;-78
2022/05/05 00:34:29;;;;;;;14.73;11.33;;;25.50;95.60;;;;;;1811808;77;21194;-78
2022/05/05 00:37:02;;;;;;;16.50;11.70;;;25.60;95.50;;;;;;1808022;77;21155;-77
2022/05/05 00:39:33;;;;;;;18.20;11.53;;;25.70;95.20;;;;;;1792310;78;21107;-77
2022/05/05 00:42:06;;;;;;;16.55;11.88;;;25.70;95.50;;;;;;1758796;80;21139;-78
2022/05/05 00:44:37;;;;;;;18.12;12.60;;;25.70;95.10;;;;;;1789795;78;21633;-79
2022/05/05 00:47:08;;;;;;;17.10;11.97;;;25.80;95.10;;;;;;1796284;77;21445;-79
2022/05/05 00:49:42;;;;;;;19.77;12.13;;;25.80;94.70;;;;;;1807914;77;21657;-79
2022/05/05 00:52:14;;;;;;;20.25;11.93;;;25.90;94.20;;;;;;1818318;78;21197;-79
2022/05/05 00:54:45;;;;;;;14.53;11.22;;;25.90;94.00;;;;;;1805870;77;21085;-79
2022/05/05 00:57:16;;;;;;;15.88;11.83;;;25.90;93.70;;;;;;1820159;77;21149;-79
2022/05/05 00:59:48;;;;;;;14.63;11.05;;;26.00;93.90;;;;;;1780453;77;21209;-79
2022/05/05 01:02:20;;;;;;;15.05;11.30;;;26.00;93.70;;;;;;1743023;80;21129;-78
2022/05/05 01:04:51;;;;;;;15.43;11.33;;;26.10;93.40;;;;;;1739197;80;22086;-79
2022/05/05 01:07:25;;;;;;;15.48;11.40;;;26.20;93.60;;;;;;1807506;78;21709;-79
2022/05/05 01:09:55;;;;;;;14.18;11.53;;;26.30;93.40;;;;;;1818397;77;21300;-79
2022/05/05 01:12:29;;;;;;;12.70;10.05;;;26.30;92.80;;;;;;1805275;77;21530;-84
2022/05/05 01:15:00;;;;;;;13.08;9.88;;;26.30;92.70;;;;;;1799406;77;21166;-83
2022/05/05 01:17:33;;;;;;;16.12;9.88;;;26.40;91.80;;;;;;1751668;79;21172;-83
2022/05/05 01:20:06;;;;;;;13.35;9.63;;;26.50;91.40;;;;;;1813044;77;21154;-83
2022/05/05 01:22:37;;;;;;;13.70;9.88;;;26.50;91.00;;;;;;1813236;77;21196;-82
2022/05/05 01:30:15;;;;;;;15.38;9.33;;;26.70;89.80;;;;;;1819742;77;21228;-71
2022/05/05 01:32:46;;;;;;;13.00;9.90;;;26.70;86.90;;;;;;1811378;76;21617;-70
2022/05/05 01:35:16;;;;;;;13.10;9.45;;;26.80;86.00;;;;;;1804199;77;21820;-71
2022/05/05 01:37:48;;;;;;;14.68;9.20;;;26.80;85.40;;;;;;1801311;78;21698;-71
2022/05/05 01:40:18;;;;;;;13.60;9.75;;;26.90;85.40;;;;;;1816711;77;21622;-71
2022/05/05 01:42:51;;;;;;;12.80;9.23;;;27.00;84.80;;;;;;1818154;77;21229;-72
2022/05/05 01:45:22;;;;;;;29.20;12.00;;;27.20;84.20;;;;;;1818342;77;21087;-72
2022/05/05 01:47:53;;;;;;;12.23;8.80;;;27.30;84.50;;;;;;1825845;77;21261;-72
2022/05/05 01:50:25;;;;;;;13.62;9.53;;;27.40;85.70;;;;;;1820451;74;21700;-72
2022/05/05 01:52:56;;;;;;;13.20;8.20;;;27.50;82.90;;;;;;1791766;79;21622;-71
2022/05/05 01:55:30;;;;;;;13.05;8.50;;;27.60;82.20;;;;;;1830954;76;21128;-73
2022/05/05 01:58:02;;;;;;;12.47;8.35;;;27.70;82.50;;;;;;1818376;77;21218;-73
2022/05/05 02:00:33;;;;;;;10.10;7.53;;;27.80;81.80;;;;;;1827246;77;21217;-72
2022/05/05 02:03:12;;;;;;;11.83;8.65;;;27.90;79.00;;;;;;1821113;77;21633;-72
2022/05/05 02:05:37;;;;;;;11.45;8.78;;;28.00;79.40;;;;;;1822475;77;21092;-72
2022/05/05 02:08:09;;;;;;;10.35;7.62;;;28.10;79.40;;;;;;1819465;77;21206;-71
2022/05/05 02:10:40;;;;;;;16.20;8.60;;;28.20;79.60;;;;;;1797880;77;21181;-71
2022/05/05 02:13:11;;;;;;;11.38;8.60;;;28.40;80.20;;;;;;1779814;77;21294;-71
2022/05/05 02:15:42;;;;;;;11.20;8.25;;;28.30;79.20;;;;;;1809520;77;21190;-70
2022/05/05 02:18:14;;;;;;;13.70;8.73;;;28.50;79.50;;;;;;1790595;78;21335;-70
2022/05/05 02:20:45;;;;;;;11.43;8.73;;;28.50;79.60;;;;;;1816543;77;21133;-70
2022/05/05 02:23:17;;;;;;;13.65;8.15;;;28.60;77.50;;;;;;1804628;76;21153;-71
2022/05/05 02:25:48;;;;;;;11.65;8.68;;;28.70;77.40;;;;;;1805516;77;21170;-69
2022/05/05 02:28:19;;;;;;;11.80;8.38;;;28.80;78.90;;;;;;1809790;77;21229;-71
2022/05/05 02:30:49;;;;;;;11.40;7.95;;;28.90;77.80;;;;;;1808265;77;21181;-71
2022/05/05 02:33:20;;;;;;;12.95;8.38;;;28.90;74.90;;;;;;1826352;77;21158;-72
2022/05/05 02:38:42;;;;;;;13.18;8.00;;;28.90;73.80;;;;;;1821103;77;21155;-72
2022/05/05 02:40:56;;;;;;;13.43;7.30;;;29.10;73.80;;;;;;1822171;77;21717;-70
2022/05/05 02:43:26;;;;;;;11.57;7.40;;;29.20;71.30;;;;;;1821957;77;21186;-70
2022/05/05 02:45:57;;;;;;;9.85;7.50;;;29.30;71.10;;;;;;1824553;77;21110;-70
2022/05/05 02:48:28;;;;;;;11.18;7.83;;;29.40;71.40;;;;;;1821900;77;21186;-69
2022/05/05 02:50:59;;;;;;;11.40;7.67;;;29.50;70.70;;;;;;1820382;77;21123;-71
2022/05/05 02:56:02;;;;;;;8.78;7.03;;;29.70;68.20;;;;;;1822856;77;21153;-70
2022/05/05 02:58:33;;;;;;;12.65;7.65;;;29.70;67.10;;;;;;1824598;77;21587;-71
2022/05/05 03:01:04;;;;;;;11.63;7.55;;;29.80;67.00;;;;;;1820752;77;21177;-72
2022/05/05 03:03:36;;;;;;;12.93;7.83;;;29.80;66.10;;;;;;1811922;77;21578;-70
2022/05/05 03:06:07;;;;;;;9.73;7.35;;;29.90;64.80;;;;;;1742547;80;21249;-70
2022/05/05 03:08:38;;;;;;;11.95;7.65;;;30.10;66.10;;;;;;1830326;77;21146;-71
2022/05/05 03:11:09;;;;;;;9.05;7.08;;;30.10;65.20;;;;;;1800236;77;21308;-72
2022/05/05 03:13:40;;;;;;;13.10;7.28;;;30.30;63.10;;;;;;1787686;78;21176;-71
2022/05/05 03:16:11;;;;;;;9.10;5.90;;;30.30;60.30;;;;;;1813704;78;21720;-70
2022/05/05 03:18:42;;;;;;;10.82;6.65;;;30.30;61.60;;;;;;1792199;78;21762;-70
2022/05/05 03:21:13;;;;;;;11.75;6.75;;;30.30;60.40;;;;;;1827460;77;21244;-71
2022/05/05 03:23:44;;;;;;;10.08;6.17;;;30.40;59.30;;;;;;1826039;77;21150;-71
2022/05/05 03:26:14;;;;;;;10.78;6.25;;;30.50;58.30;;;;;;1845632;77;21143;-70
2022/05/05 03:28:45;;;;;;;9.95;6.30;;;30.50;57.10;;;;;;1813567;77;21178;-69
2022/05/05 03:31:16;;;;;;;13.20;6.92;;;30.60;58.40;;;;;;1813296;76;21221;-69
2022/05/05 03:33:47;;;;;;;8.53;6.08;;;30.70;57.50;;;;;;1818162;77;21233;-70
2022/05/05 03:36:18;;;;;;;12.23;6.40;;;30.80;58.40;;;;;;1824761;77;21143;-70
2022/05/05 03:38:48;;;;;;;8.48;6.15;;;30.80;56.80;;;;;;1795628;78;21904;-70
2022/05/05 03:41:19;;;;;;;9.08;6.75;;;30.90;56.70;;;;;;1797285;78;21921;-70
2022/05/05 03:43:52;;;;;;;12.82;6.85;;;30.90;56.90;;;;;;1820766;77;21304;-69
2022/05/05 03:46:23;;;;;;;11.35;6.58;;;30.90;56.40;;;;;;1824337;77;21185;-70
2022/05/05 03:48:54;;;;;;;7.70;5.95;;;30.90;55.70;;;;;;1748774;80;21157;-69
2022/05/05 03:51:25;;;;;;;9.90;6.83;;;30.90;56.30;;;;;;1752563;80;21232;-70
2022/05/05 03:53:56;;;;;;;8.83;6.35;;;31.00;55.10;;;;;;1756803;80;21231;-70
2022/05/05 03:56:27;;;;;;;8.15;6.40;;;31.10;54.20;;;;;;1796794;78;21769;-69
2022/05/05 03:58:57;;;;;;;10.10;6.40;;;31.10;54.50;;;;;;1814721;77;21186;-70
2022/05/05 04:01:28;;;;;;;9.18;6.35;;;31.10;54.60;;;;;;1804605;78;21101;-70
2022/05/05 04:04:19;;;;;;;11.28;7.05;;;31.20;54.60;;;;;;1783053;78;21128;-69
2022/05/05 04:06:53;;;;;;;8.05;6.35;;;31.20;54.20;;;;;;1764100;80;21142;-80
2022/05/05 04:09:24;;;;;;;8.43;6.42;;;31.30;55.70;;;;;;1767143;79;21728;-80
2022/05/05 04:11:55;;;;;;;9.10;6.20;;;31.40;55.10;;;;;;1724303;81;21269;-80
2022/05/05 04:14:26;;;;;;;8.83;6.50;;;31.40;54.40;;;;;;1750835;79;21377;-80
2022/05/05 04:16:56;;;;;;;12.28;6.45;;;31.50;53.00;;;;;;1763213;80;21237;-80
2022/05/05 04:19:28;;;;;;;8.23;6.03;;;31.60;52.80;;;;;;1805471;77;21650;-80
2022/05/05 04:21:59;;;;;;;7.50;6.25;;;31.60;52.60;;;;;;1795289;78;21677;-79
2022/05/05 04:24:36;;;;;;;9.50;6.70;;;31.60;51.30;;;;;;1793783;77;21643;-80
2022/05/05 04:27:07;;;;;;;12.85;6.90;;;31.60;51.70;;;;;;1794620;78;21703;-79
2022/05/05 04:29:39;;;;;;;9.83;6.30;;;31.60;52.50;;;;;;1748333;80;21709;-80
2022/05/05 04:32:11;;;;;;;8.55;6.53;;;31.60;52.90;;;;;;1799667;78;21789;-80
2022/05/05 04:34:42;;;;;;;9.90;6.62;;;31.60;53.30;;;;;;1776766;79;21300;-79
2022/05/05 04:37:13;;;;;;;10.75;6.90;;;31.70;53.30;;;;;;1798859;77;21172;-79
2022/05/05 04:39:48;;;;;;;10.13;7.15;;;31.70;53.40;;;;;;1804428;77;21167;-78
2022/05/05 04:42:20;;;;;;;10.70;7.20;;;31.80;51.40;;;;;;1797676;78;21278;-81
2022/05/05 04:44:50;;;;;;;13.60;7.20;;;31.80;51.80;;;;;;1828258;77;21184;-78
2022/05/05 04:47:22;;;;;;;11.95;7.60;;;31.90;52.20;;;;;;1839532;76;21734;-81
2022/05/05 04:49:55;;;;;;;11.85;7.22;;;32.00;53.00;;;;;;1797964;78;21232;-71
2022/05/05 04:52:25;;;;;;;10.60;7.72;;;32.00;53.60;;;;;;1785301;79;21581;-70
2022/05/05 04:54:56;;;;;;;10.32;6.90;;;32.00;50.90;;;;;;1784616;79;21232;-71
2022/05/05 04:57:28;;;;;;;12.28;7.58;;;32.00;52.10;;;;;;1784211;79;21154;-70
2022/05/05 05:00:00;;;;;;;16.40;7.58;;;32.00;50.50;;;;;;1782084;79;21251;-70
2022/05/05 05:02:31;;;;;;;12.37;7.70;;;32.00;51.40;;;;;;1788866;79;21567;-71
2022/05/05 05:05:02;;;;;;;10.48;6.80;;;32.00;52.70;;;;;;1791873;77;21704;-81
2022/05/05 05:07:33;;;;;;;10.18;7.05;;;32.10;51.80;;;;;;1785935;78;21457;-82
2022/05/05 05:10:05;;;;;;;10.53;7.20;;;32.10;54.70;;;;;;1786254;78;21482;-83
2022/05/05 05:12:36;;;;;;;11.63;7.58;;;32.20;52.20;;;;;;1819138;77;21289;-81
2022/05/05 05:15:08;;;;;;;13.22;7.85;;;32.30;51.10;;;;;;1772284;78;21143;-83
2022/05/05 05:17:39;;;;;;;9.70;7.37;;;32.30;52.40;;;;;;1772446;78;21268;-82
2022/05/05 05:20:10;;;;;;;13.32;7.35;;;32.40;52.60;;;;;;1730258;81;21147;-82
2022/05/05 05:22:41;;;;;;;13.60;7.72;;;32.40;51.40;;;;;;1808292;77;21724;-82
2022/05/05 05:25:12;;;;;;;11.50;7.83;;;32.40;50.10;;;;;;1780130;78;21238;-82
2022/05/05 05:27:43;;;;;;;10.98;6.90;;;32.40;50.50;;;;;;1776827;79;21157;-83
2022/05/05 05:30:15;;;;;;;10.55;7.47;;;32.40;51.20;;;;;;1818475;77;21147;-77
2022/05/05 05:32:46;;;;;;;12.03;7.92;;;32.40;50.10;;;;;;1790362;79;21209;-70
2022/05/05 05:35:17;;;;;;;12.10;7.62;;;32.50;49.60;;;;;;1785551;79;21146;-70
2022/05/05 05:37:48;;;;;;;11.78;7.85;;;32.60;50.20;;;;;;1826247;77;21177;-71
2022/05/05 05:40:19;;;;;;;15.30;8.20;;;32.60;49.20;;;;;;1832906;77;21151;-70
2022/05/05 05:42:49;;;;;;;12.20;8.73;;;32.60;49.10;;;;;;1831559;77;21201;-71
2022/05/05 05:45:20;;;;;;;12.93;8.10;;;32.50;49.10;;;;;;1810673;77;21672;-71
2022/05/05 05:47:52;;;;;;;14.83;8.53;;;32.60;48.90;;;;;;1788244;79;21220;-71
2022/05/05 05:50:23;;;;;;;14.13;8.23;;;32.60;47.80;;;;;;1830799;77;21690;-71
2022/05/05 05:52:54;;;;;;;14.80;8.98;;;32.50;48.20;;;;;;1835357;77;21171;-71
2022/05/05 05:55:26;;;;;;;9.78;8.08;;;32.50;49.00;;;;;;1785718;78;21732;-70
2022/05/05 05:57:57;;;;;;;10.70;8.08;;;32.50;49.80;;;;;;1756409;80;21654;-70
2022/05/05 06:00:28;;;;;;;11.95;8.48;;;32.50;50.30;;;;;;1790387;79;21123;-70
2022/05/05 06:05:32;;;;;;;14.50;9.23;;;32.40;49.20;;;;;;1788763;78;21112;-70
2022/05/05 06:08:04;;;;;;;13.45;9.50;;;32.40;49.20;;;;;;1831306;77;21171;-71
2022/05/05 06:10:36;;;;;;;9.65;7.95;;;32.30;49.80;;;;;;1785410;78;21194;-71
2022/05/05 06:13:07;;;;;;;10.95;7.72;;;32.30;48.70;;;;;;1821572;77;21185;-71
2022/05/05 06:15:38;;;;;;;10.20;7.53;;;32.40;47.70;;;;;;1824293;77;21191;-71
2022/05/05 06:18:09;;;;;;;12.85;8.40;;;32.40;47.90;;;;;;1777723;79;21713;-71
2022/05/05 06:20:40;;;;;;;10.40;7.95;;;32.50;47.00;;;;;;1782092;79;21696;-70
2022/05/05 06:23:11;;;;;;;12.63;8.10;;;32.40;47.90;;;;;;1784156;79;21170;-70
2022/05/05 06:25:41;;;;;;;17.02;9.53;;;32.40;49.20;;;;;;1771275;79;21692;-70
2022/05/05 06:28:12;;;;;;;15.35;8.33;;;32.40;48.90;;;;;;1849393;77;21616;-70
2022/05/05 06:30:43;;;;;;;13.35;8.28;;;32.30;47.30;;;;;;1792498;78;21607;-71
2022/05/05 06:33:16;;;;;;;12.95;8.80;;;32.30;48.50;;;;;;1800421;78;21187;-71
2022/05/05 06:35:47;;;;;;;11.85;8.50;;;32.30;49.20;;;;;;1765213;78;22015;-70
2022/05/05 06:38:18;;;;;;;13.40;8.38;;;32.40;48.80;;;;;;1816566;77;21205;-70
2022/05/05 06:40:51;;;;;;;11.00;8.88;;;32.30;48.50;;;;;;1815283;77;21661;-70
2022/05/05 06:43:22;;;;;;;11.65;8.23;;;32.30;48.60;;;;;;1779503;79;21611;-70
2022/05/05 06:45:54;;;;;;;11.43;8.25;;;32.30;48.70;;;;;;1759222;80;21239;-71
2022/05/05 06:48:26;;;;;;;11.33;7.97;;;32.30;49.20;;;;;;1770504;78;21826;-70
2022/05/05 06:50:57;;;;;;;9.93;7.83;;;32.30;49.00;;;;;;1781110;78;21704;-70
2022/05/05 06:53:28;;;;;;;9.50;7.90;;;32.40;47.80;;;;;;1830447;77;21713;-71
2022/05/05 06:56:00;;;;;;;9.80;7.72;;;32.40;47.40;;;;;;1815920;77;21678;-70
2022/05/05 06:58:31;;;;;;;10.98;8.23;;;32.50;48.20;;;;;;1842190;77;21083;-71
2022/05/05 07:03:36;;;;;;;21.50;18.27;;;32.50;48.80;;;;;;1788505;79;21138;-71
2022/05/05 07:06:10;;;;;;;14.55;12.15;;;32.50;50.60;;;;;;1783517;79;21643;-71
2022/05/05 07:11:12;;;;;;;13.53;8.95;;;32.60;48.50;;;;;;1790750;79;21730;-72
2022/05/05 07:13:43;;;;;;;11.35;8.80;;;32.60;48.80;;;;;;1803033;78;21114;-72
2022/05/05 07:16:13;;;;;;;15.53;8.50;;;32.60;49.60;;;;;;1826444;78;21111;-71
2022/05/05 07:18:44;;;;;;;12.05;8.50;;;32.50;49.10;;;;;;1799615;78;21675;-71
2022/05/05 07:21:15;;;;;;;18.40;11.45;;;32.50;48.60;;;;;;1801883;78;21162;-71
2022/05/05 07:23:46;;;;;;;33.18;23.65;;;32.50;49.30;;;;;;1766451;79;21263;-72
2022/05/05 07:26:17;;;;;;;19.10;9.35;;;32.50;49.20;;;;;;1757168;81;21202;-72
2022/05/05 07:28:48;;;;;;;13.10;8.68;;;32.50;49.00;;;;;;1814924;78;21178;-71
2022/05/05 07:31:19;;;;;;;9.63;7.78;;;32.50;48.50;;;;;;1788983;80;22148;-70
2022/05/05 07:33:50;;;;;;;13.15;7.70;;;32.50;47.90;;;;;;1815661;78;21707;-71
2022/05/05 07:36:22;;;;;;;11.28;7.78;;;32.50;47.50;;;;;;1820870;77;21089;-70
2022/05/05 07:38:52;;;;;;;12.43;7.42;;;32.50;49.30;;;;;;1778229;79;21780;-70
2022/05/05 07:41:23;;;;;;;10.30;7.87;;;32.50;48.00;;;;;;1796398;79;21163;-70
2022/05/05 07:43:54;;;;;;;10.43;7.78;;;32.50;48.40;;;;;;1815297;77;21256;-71
2022/05/05 07:46:25;;;;;;;13.05;7.70;;;32.50;48.30;;;;;;1825236;77;21312;-69
2022/05/05 07:48:56;;;;;;;16.07;7.80;;;32.40;47.90;;;;;;1785503;78;21574;-69
2022/05/05 07:51:28;;;;;;;9.63;7.05;;;32.50;48.00;;;;;;1832032;77;21270;-71
2022/05/05 07:56:32;;;;;;;11.03;7.42;;;32.50;47.30;;;;;;1783539;79;21198;-71
2022/05/05 07:59:03;;;;;;;10.82;7.62;;;32.50;47.40;;;;;;1744122;80;21182;-70
2022/05/05 08:01:34;;;;;;;13.93;7.90;;;32.60;47.90;;;;;;1817681;77;21252;-70
2022/05/05 08:04:06;;;;;;;9.63;7.92;;;32.60;47.50;;;;;;1789641;77;21823;-70
2022/05/05 08:06:37;;;;;;;38.35;29.48;;;32.60;46.90;;;;;;1750684;80;21460;-70
2022/05/05 08:09:09;;;;;;;40.85;34.60;;;32.60;47.30;;;;;;1806632;78;21145;-70
2022/05/05 08:11:40;;;;;;;12.07;7.37;;;32.60;47.60;;;;;;1751161;79;21222;-70
2022/05/05 08:14:14;;;;;;;9.98;7.40;;;32.60;47.20;;;;;;1780511;79;21178;-71
2022/05/05 08:16:46;;;;;;;12.85;8.20;;;32.60;47.40;;;;;;1817796;77;21124;-70
2022/05/05 08:19:18;;;;;;;11.33;7.35;;;32.60;48.30;;;;;;1829419;77;21727;-71
2022/05/05 08:21:49;;;;;;;10.20;6.92;;;32.60;46.10;;;;;;1790360;79;21628;-71
2022/05/05 08:29:26;;;;;;;10.45;7.08;;;32.50;46.50;;;;;;1786872;79;21181;-71
2022/05/05 08:31:57;;;;;;;12.00;7.15;;;32.50;46.40;;;;;;1829709;77;21636;-71
2022/05/05 08:34:29;;;;;;;10.58;6.72;;;32.40;46.40;;;;;;1799820;78;21698;-70
2022/05/05 08:36:59;;;;;;;10.58;6.87;;;32.40;48.30;;;;;;1794736;78;21125;-71
2022/05/05 08:39:31;;;;;;;13.18;7.22;;;32.30;47.80;;;;;;1765125;79;21204;-70
2022/05/05 08:42:04;;;;;;;10.20;6.75;;;32.30;48.50;;;;;;1767422;79;21260;-70
2022/05/05 08:44:35;;;;;;;10.53;7.37;;;32.20;48.50;;;;;;1825776;77;21249;-72
2022/05/05 08:47:09;;;;;;;10.35;7.03;;;32.20;48.00;;;;;;1786602;78;21225;-72
2022/05/05 08:49:42;;;;;;;9.58;5.92;;;32.10;48.50;;;;;;1824958;77;21238;-71
2022/05/05 08:52:16;;;;;;;10.38;6.87;;;32.10;48.40;;;;;;1786992;79;21673;-72
2022/05/05 08:54:49;;;;;;;11.93;7.00;;;32.10;49.50;;;;;;1825913;77;21221;-71
2022/05/05 08:57:20;;;;;;;9.15;6.05;;;32.00;49.40;;;;;;1791905;77;21127;-72
2022/05/05 08:59:51;;;;;;;10.98;5.62;;;31.90;48.40;;;;;;1822091;77;21673;-71
2022/05/05 09:02:22;;;;;;;6.65;5.47;;;31.80;47.80;;;;;;1826233;78;21164;-70
2022/05/05 09:04:53;;;;;;;12.47;7.45;;;31.70;48.10;;;;;;1826520;78;21231;-71
2022/05/05 09:07:25;;;;;;;9.68;6.17;;;31.70;48.50;;;;;;1792150;79;21234;-71
2022/05/05 09:09:56;;;;;;;8.00;6.30;;;31.70;48.70;;;;;;1850827;75;21191;-71
2022/05/05 09:12:27;;;;;;;9.28;5.83;;;31.60;49.50;;;;;;1789274;79;21613;-71
2022/05/05 09:14:59;;;;;;;9.13;5.70;;;31.60;49.40;;;;;;1831793;78;21216;-71
2022/05/05 09:17:32;;;;;;;8.65;6.60;;;31.50;50.10;;;;;;1826741;77;21595;-72
2022/05/05 09:20:04;;;;;;;8.75;6.03;;;31.50;50.00;;;;;;1803515;78;21212;-73
2022/05/05 09:22:37;;;;;;;10.75;6.15;;;31.50;50.80;;;;;;1807111;79;21157;-71
2022/05/05 09:25:09;;;;;;;7.95;5.97;;;31.50;50.70;;;;;;1787334;79;21182;-71
2022/05/05 09:27:40;;;;;;;9.93;6.85;;;31.40;51.00;;;;;;1791196;80;21214;-72
2022/05/05 09:30:13;;;;;;;9.28;7.00;;;31.40;50.70;;;;;;1791078;79;21688;-72
2022/05/05 09:32:46;;;;;;;10.30;6.30;;;31.50;50.90;;;;;;1785827;80;21657;-71
2022/05/05 09:35:19;;;;;;;8.53;6.20;;;31.50;49.80;;;;;;1788451;79;21248;-72
2022/05/05 09:37:55;;;;;;;9.43;5.72;;;31.50;50.60;;;;;;1789667;78;21097;-72
2022/05/05 09:40:25;;;;;;;9.18;6.33;;;31.50;50.30;;;;;;1808250;77;21155;-71
2022/05/05 09:43:14;;;;;;;7.12;5.92;;;31.50;50.30;;;;;;1790617;77;21180;-70
2022/05/05 09:46:07;;;;;;;9.25;5.92;;;31.50;50.70;;;;;;1823546;77;21261;-71
2022/05/05 09:48:40;;;;;;;8.23;6.53;;;31.40;51.50;;;;;;1745551;81;21726;-71
2022/05/05 09:51:21;;;;;;;8.70;6.30;;;31.50;52.30;;;;;;1736582;81;21313;-72
2022/05/05 09:59:29;;;;;;;8.73;6.10;;;31.40;51.80;;;;;;1713526;82;21236;-72
2022/05/05 10:01:56;;;;;;;10.40;6.35;;;31.40;52.00;;;;;;1742630;81;21762;-71
2022/05/05 10:04:27;;;;;;;11.38;6.28;;;31.40;52.20;;;;;;1735646;80;21302;-71
2022/05/05 10:06:59;;;;;;;9.55;6.60;;;31.40;52.50;;;;;;1712867;82;21335;-72
2022/05/05 10:09:33;;;;;;;10.48;6.33;;;31.40;52.20;;;;;;1719335;83;21241;-72
2022/05/05 10:12:05;;;;;;;9.85;6.35;;;31.30;52.20;;;;;;1685336;82;21322;-71
2022/05/05 10:14:36;;;;;;;12.85;6.53;;;31.30;52.40;;;;;;1739492;81;21268;-72
2022/05/05 10:17:07;;;;;;;9.05;6.65;;;31.30;52.60;;;;;;1702534;82;21220;-72
2022/05/05 10:19:39;;;;;;;11.73;6.78;;;31.20;52.90;;;;;;1783387;77;21132;-73
2022/05/05 10:22:11;;;;;;;8.35;6.37;;;31.20;52.40;;;;;;1782987;79;21097;-72
2022/05/05 10:24:45;;;;;;;11.15;6.58;;;31.10;52.50;;;;;;1823964;77;21170;-71
2022/05/05 10:27:17;;;;;;;8.80;6.40;;;31.10;52.90;;;;;;1822558;76;21215;-71
2022/05/05 10:29:48;;;;;;;12.13;7.10;;;31.10;53.20;;;;;;1811226;78;21130;-71
2022/05/05 10:32:24;;;;;;;9.35;6.75;;;31.10;53.40;;;;;;1832092;77;21144;-71
2022/05/05 10:34:57;;;;;;;9.35;7.00;;;31.00;53.30;;;;;;1828859;77;21273;-72
2022/05/05 10:37:30;;;;;;;14.38;8.80;;;31.00;53.50;;;;;;1838695;76;21989;-71
2022/05/05 10:40:03;;;;;;;15.18;8.00;;;31.00;53.30;;;;;;1788320;78;21653;-71
2022/05/05 10:42:41;;;;;;;11.30;7.28;;;31.00;53.20;;;;;;1821265;77;21127;-71
2022/05/05 10:45:10;;;;;;;13.05;7.85;;;31.00;53.60;;;;;;1774144;79;21867;-71
2022/05/05 10:47:43;;;;;;;10.65;8.53;;;31.00;54.00;;;;;;1784770;78;21641;-80
2022/05/05 10:50:16;;;;;;;12.73;7.42;;;31.00;53.50;;;;;;1830535;77;21221;-79
2022/05/05 10:52:50;;;;;;;10.30;7.08;;;30.90;53.50;;;;;;1790378;78;21732;-80
2022/05/05 10:55:25;;;;;;;10.55;7.03;;;30.90;53.70;;;;;;1845279;76;21182;-80
2022/05/05 10:57:57;;;;;;;11.20;7.17;;;30.90;53.80;;;;;;1787378;78;21256;-79
2022/05/05 11:00:31;;;;;;;11.33;7.22;;;30.90;54.00;;;;;;1826501;77;21175;-79
2022/05/05 11:03:01;;;;;;;10.08;6.62;;;30.80;54.40;;;;;;1861771;77;21208;-79
2022/05/05 11:05:38;;;;;;;14.10;7.00;;;30.80;54.20;;;;;;1830584;77;21242;-80
2022/05/05 11:08:08;;;;;;;12.20;7.10;;;30.80;54.20;;;;;;1827712;78;21250;-80
2022/05/05 11:10:40;;;;;;;9.18;6.53;;;30.70;54.30;;;;;;1829368;77;21197;-80
2022/05/05 11:13:13;;;;;;;12.13;6.83;;;30.70;54.50;;;;;;1803564;78;21111;-79
2022/05/05 11:23:26;;;;;;;9.10;6.95;;;30.60;54.80;;;;;;1786470;80;21627;-79
2022/05/05 11:25:58;;;;;;;11.43;7.62;;;30.60;54.80;;;;;;1757859;81;21232;-79
2022/05/05 11:28:30;;;;;;;16.93;8.63;;;30.60;55.00;;;;;;1815837;77;21663;-80
2022/05/05 11:31:05;;;;;;;10.53;7.60;;;30.60;55.00;;;;;;1820483;78;21611;-82
2022/05/05 11:33:36;;;;;;;13.40;8.50;;;30.50;54.90;;;;;;1793183;78;21181;-80
2022/05/05 11:36:07;;;;;;;12.88;8.93;;;30.50;55.20;;;;;;1825835;77;21128;-79
2022/05/05 11:38:40;;;;;;;14.75;9.48;;;30.50;55.20;;;;;;1797030;78;21171;-79
2022/05/05 11:41:12;;;;;;;15.95;10.10;;;30.50;55.50;;;;;;1856479;76;21089;-80
2022/05/05 11:46:17;;;;;;;12.65;8.20;;;30.40;55.80;;;;;;1823136;77;21097;-79
2022/05/05 11:48:51;;;;;;;17.77;10.03;;;30.40;55.90;;;;;;1832422;77;21183;-80
2022/05/05 11:51:24;;;;;;;14.68;10.53;;;30.40;56.00;;;;;;1832169;77;21654;-80
2022/05/05 11:53:58;;;;;;;15.65;9.83;;;30.40;56.30;;;;;;1839806;77;21631;-79
2022/05/05 11:56:30;;;;;;;16.15;11.05;;;30.40;56.20;;;;;;1784774;78;21182;-78
2022/05/05 12:01:42;;;;;;;20.37;11.03;;;30.30;56.90;;;;;;1799428;78;22091;-80
2022/05/05 12:04:14;;;;;;;17.87;9.85;;;30.30;57.40;;;;;;1790757;78;21184;-80
2022/05/05 12:06:45;;;;;;;15.43;9.20;;;30.30;57.30;;;;;;1799545;78;21283;-79
2022/05/05 12:09:17;;;;;;;14.30;8.83;;;30.20;57.30;;;;;;1769003;80;21213;-79
2022/05/05 12:11:48;;;;;;;14.38;8.60;;;30.10;57.20;;;;;;1797789;78;21196;-79
2022/05/05 12:14:22;;;;;;;14.00;9.20;;;30.10;57.40;;;;;;1746461;80;21701;-79
2022/05/05 12:16:53;;;;;;;24.15;14.38;;;30.10;57.70;;;;;;1747649;81;21106;-79
2022/05/05 12:19:25;;;;;;;19.02;11.65;;;30.10;58.20;;;;;;1745347;80;21174;-79
2022/05/05 12:21:58;;;;;;;18.90;9.90;;;30.00;58.40;;;;;;1824169;78;21143;-79
2022/05/05 12:24:31;;;;;;;13.80;9.38;;;30.00;58.40;;;;;;1810943;78;21264;-79
2022/05/05 12:27:05;;;;;;;16.05;10.32;;;30.00;58.80;;;;;;1774674;80;21125;-80
2022/05/05 12:29:39;;;;;;;27.77;14.07;;;30.00;59.20;;;;;;1761503;81;21283;-80
2022/05/05 12:32:12;;;;;;;19.15;11.50;;;30.00;59.20;;;;;;1812498;78;21425;-80
2022/05/05 12:34:44;;;;;;;23.85;13.88;;;30.00;59.40;;;;;;1794894;78;21128;-80
2022/05/05 12:37:20;;;;;;;25.70;13.93;;;30.00;59.40;;;;;;1791205;78;21285;-80
2022/05/05 12:39:54;;;;;;;28.00;15.72;;;30.00;59.40;;;;;;1791749;77;21240;-79
2022/05/05 12:42:28;;;;;;;26.80;15.32;;;29.90;59.80;;;;;;1821110;78;21170;-79
2022/05/05 12:45:00;;;;;;;22.93;14.30;;;29.90;59.90;;;;;;1784184;78;21246;-79
2022/05/05 12:47:30;;;;;;;22.22;13.15;;;29.90;60.00;;;;;;1826354;78;21143;-79
2022/05/05 12:50:09;;;;;;;23.70;12.43;;;29.90;60.00;;;;;;1810873;78;21176;-79
2022/05/05 13:00:17;;;;;;;19.98;11.90;;;29.80;59.80;;;;;;1794659;78;21118;-80
2022/05/05 13:02:50;;;;;;;22.85;13.62;;;29.80;59.40;;;;;;1791720;77;21696;-79
2022/05/05 13:05:21;;;;;;;20.10;12.43;;;29.80;60.90;;;;;;1800661;78;21793;-79
2022/05/05 13:07:52;;;;;;;20.68;12.55;;;29.80;60.10;;;;;;1800429;77;21142;-80
2022/05/05 13:10:23;;;;;;;20.43;11.08;;;29.80;60.10;;;;;;1802838;77;21162;-79
2022/05/05 13:12:54;;;;;;;22.05;10.40;;;29.80;60.00;;;;;;1813773;78;21173;-80
2022/05/05 13:15:27;;;;;;;18.05;11.70;;;29.70;60.80;;;;;;1797298;78;21182;-80
2022/05/05 13:17:58;;;;;;;22.98;12.82;;;29.70;61.00;;;;;;1809119;78;21136;-79
2022/05/05 13:20:29;;;;;;;21.62;11.88;;;29.70;60.90;;;;;;1795573;78;21249;-80
2022/05/05 13:23:00;;;;;;;21.33;12.53;;;29.70;61.00;;;;;;1797832;78;21233;-80
2022/05/05 13:25:31;;;;;;;20.23;12.40;;;29.70;61.60;;;;;;1810968;78;21576;-81
2022/05/05 13:28:02;;;;;;;21.90;12.95;;;29.70;61.80;;;;;;1800094;78;21162;-80
2022/05/05 13:30:32;;;;;;;22.87;13.28;;;29.60;61.80;;;;;;1802089;78;21759;-80
2022/05/05 13:33:04;;;;;;;23.98;13.60;;;29.60;62.30;;;;;;1765982;79;21232;-80
2022/05/05 13:35:35;;;;;;;21.00;13.00;;;29.60;62.50;;;;;;1730475;81;21922;-80
2022/05/05 13:38:06;;;;;;;20.02;12.33;;;29.60;62.70;;;;;;1800841;78;21244;-79
2022/05/05 13:40:39;;;;;;;22.85;12.85;;;29.60;62.70;;;;;;1789494;78;21193;-80
2022/05/05 13:43:10;;;;;;;20.35;13.32;;;29.60;63.00;;;;;;1797617;78;21322;-80
2022/05/05 13:45:41;;;;;;;27.98;18.25;;;29.60;63.60;;;;;;1803365;78;21138;-80
2022/05/05 13:48:12;;;;;;;20.20;13.55;;;29.50;64.00;;;;;;1799537;78;21207;-80
2022/05/05 13:50:43;;;;;;;23.42;13.25;;;29.50;64.40;;;;;;1793526;78;21194;-79
2022/05/05 13:53:14;;;;;;;23.47;13.70;;;29.50;64.80;;;;;;1798746;78;21708;-79